sensor_id;sensor_type;location;lat;lon;timestamp;temperature;humidity
12887;DHT22;6511;49.746;6.094;2022-12-29T00:01:15;9.20;99.90
12887;DHT22;6511;49.746;6.094;2022-12-29T00:03:40;9.20;99.90
12887;DHT22;6511;49.746;6.094;2022-12-29T00:06:06;9.20;99.90
12887;DHT22;6511;49.746;6.094;2022-12-29T00:08:32;9.20;99.90
12887;DHT22;6511;49.746;6.094;2022-12-29T00:11:12;9.20;99.90
12887;DHT22;6511;49.746;6.094;2022-12-29T00:13:37;9.20;99.90
12887;DHT22;6511;49.746;6.094;2022-12-29T00:16:22;9.20;99.90
12887;DHT22;6511;49.746;6.094;2022-12-29T00:18:47;9.20;99.90
12887;DHT22;6511;49.746;6.094;2022-12-29T00:21:14;9.20;99.90
12887;DHT22;6511;49.746;6.094;2022-12-29T00:23:59;9.30;99.90
12887;DHT22;6511;49.746;6.094;2022-12-29T00:26:40;9.30;99.90
12887;DHT22;6511;49.746;6.094;2022-12-29T00:29:24;9.20;99.90
12887;DHT22;6511;49.746;6.094;2022-12-29T00:32:10;9.30;99.90
12887;DHT22;6511;49.746;6.094;2022-12-29T00:34:54;9.30;99.90
12887;DHT22;6511;49.746;6.094;2022-12-29T00:37:40;9.30;99.90
12887;DHT22;6511;49.746;6.094;2022-12-29T00:40:25;9.30;99.90
12887;DHT22;6511;49.746;6.094;2022-12-29T00:43:10;9.30;99.90
12887;DHT22;6511;49.746;6.094;2022-12-29T00:45:54;9.40;99.90
12887;DHT22;6511;49.746;6.094;2022-12-29T00:48:19;9.30;99.90
12887;DHT22;6511;49.746;6.094;2022-12-29T00:51:05;9.40;99.90
12887;DHT22;6511;49.746;6.094;2022-12-29T00:53:30;9.40;99.90
12887;DHT22;6511;49.746;6.094;2022-12-29T00:55:56;9.40;99.90
12887;DHT22;6511;49.746;6.094;2022-12-29T00:58:22;9.40;99.90
12887;DHT22;6511;49.746;6.094;2022-12-29T01:00:47;9.40;99.90
12887;DHT22;6511;49.746;6.094;2022-12-29T01:03:13;9.40;99.90
12887;DHT22;6511;49.746;6.094;2022-12-29T01:05:38;9.40;99.90
12887;DHT22;6511;49.746;6.094;2022-12-29T01:08:04;9.40;99.90
12887;DHT22;6511;49.746;6.094;2022-12-29T01:10:29;9.40;99.90
12887;DHT22;6511;49.746;6.094;2022-12-29T01:12:55;9.40;99.90
12887;DHT22;6511;49.746;6.094;2022-12-29T01:15:21;9.40;99.90
12887;DHT22;6511;49.746;6.094;2022-12-29T01:17:46;9.40;99.90
12887;DHT22;6511;49.746;6.094;2022-12-29T01:20:12;9.40;99.90
12887;DHT22;6511;49.746;6.094;2022-12-29T01:22:38;9.40;99.90
12887;DHT22;6511;49.746;6.094;2022-12-29T01:25:05;9.40;99.90
12887;DHT22;6511;49.746;6.094;2022-12-29T01:27:30;9.40;99.90
12887;DHT22;6511;49.746;6.094;2022-12-29T01:29:56;9.40;99.90
12887;DHT22;6511;49.746;6.094;2022-12-29T01:32:22;9.40;99.90
12887;DHT22;6511;49.746;6.094;2022-12-29T01:34:48;9.30;99.90
12887;DHT22;6511;49.746;6.094;2022-12-29T01:37:13;9.40;99.90
12887;DHT22;6511;49.746;6.094;2022-12-29T01:39:39;9.30;99.90
12887;DHT22;6511;49.746;6.094;2022-12-29T01:42:04;9.40;99.90
12887;DHT22;6511;49.746;6.094;2022-12-29T01:45:08;9.30;99.90
12887;DHT22;6511;49.746;6.094;2022-12-29T01:47:46;9.40;99.90
12887;DHT22;6511;49.746;6.094;2022-12-29T01:50:46;9.30;99.90
12887;DHT22;6511;49.746;6.094;2022-12-29T01:53:33;9.30;99.90
12887;DHT22;6511;49.746;6.094;2022-12-29T01:56:04;9.40;99.90
12887;DHT22;6511;49.746;6.094;2022-12-29T01:58:34;9.30;99.90
12887;DHT22;6511;49.746;6.094;2022-12-29T02:01:01;9.30;99.90
12887;DHT22;6511;49.746;6.094;2022-12-29T02:03:28;9.30;99.90
12887;DHT22;6511;49.746;6.094;2022-12-29T02:06:22;9.30;99.90
12887;DHT22;6511;49.746;6.094;2022-12-29T02:08:50;9.30;99.90
12887;DHT22;6511;49.746;6.094;2022-12-29T02:11:18;9.40;99.90
12887;DHT22;6511;49.746;6.094;2022-12-29T02:13:44;9.40;99.90
12887;DHT22;6511;49.746;6.094;2022-12-29T02:16:35;9.30;99.90
12887;DHT22;6511;49.746;6.094;2022-12-29T02:22:15;9.40;99.90
12887;DHT22;6511;49.746;6.094;2022-12-29T02:24:47;9.40;99.90
12887;DHT22;6511;49.746;6.094;2022-12-29T02:41:07;9.40;99.90
12887;DHT22;6511;49.746;6.094;2022-12-29T02:46:22;9.50;99.90
12887;DHT22;6511;49.746;6.094;2022-12-29T02:49:10;9.50;99.90
12887;DHT22;6511;49.746;6.094;2022-12-29T02:52:14;9.50;99.90
12887;DHT22;6511;49.746;6.094;2022-12-29T02:54:32;9.50;99.90
12887;DHT22;6511;49.746;6.094;2022-12-29T02:59:53;9.60;99.90
12887;DHT22;6511;49.746;6.094;2022-12-29T03:02:43;9.60;99.90
12887;DHT22;6511;49.746;6.094;2022-12-29T03:08:28;9.70;99.90
12887;DHT22;6511;49.746;6.094;2022-12-29T03:11:07;9.70;99.90
12887;DHT22;6511;49.746;6.094;2022-12-29T03:13:56;9.70;99.90
12887;DHT22;6511;49.746;6.094;2022-12-29T03:17:08;9.80;99.90
12887;DHT22;6511;49.746;6.094;2022-12-29T03:19:38;9.70;99.90
12887;DHT22;6511;49.746;6.094;2022-12-29T03:22:15;9.70;99.90
12887;DHT22;6511;49.746;6.094;2022-12-29T03:25:05;9.80;99.90
12887;DHT22;6511;49.746;6.094;2022-12-29T03:28:05;9.80;99.90
12887;DHT22;6511;49.746;6.094;2022-12-29T03:30:33;10.00;99.90
12887;DHT22;6511;49.746;6.094;2022-12-29T03:33:02;10.00;99.90
12887;DHT22;6511;49.746;6.094;2022-12-29T03:35:32;9.90;99.90
12887;DHT22;6511;49.746;6.094;2022-12-29T03:37:58;10.00;99.90
12887;DHT22;6511;49.746;6.094;2022-12-29T03:40:26;10.00;99.90
12887;DHT22;6511;49.746;6.094;2022-12-29T03:42:53;10.00;99.90
12887;DHT22;6511;49.746;6.094;2022-12-29T03:45:19;10.00;99.90
12887;DHT22;6511;49.746;6.094;2022-12-29T03:47:45;10.00;99.90
12887;DHT22;6511;49.746;6.094;2022-12-29T03:50:12;9.90;99.90
12887;DHT22;6511;49.746;6.094;2022-12-29T03:52:38;9.90;99.90
12887;DHT22;6511;49.746;6.094;2022-12-29T03:55:04;9.90;99.90
12887;DHT22;6511;49.746;6.094;2022-12-29T03:57:30;9.90;99.90
12887;DHT22;6511;49.746;6.094;2022-12-29T03:59:55;9.90;99.90
12887;DHT22;6511;49.746;6.094;2022-12-29T04:02:21;9.90;99.90
12887;DHT22;6511;49.746;6.094;2022-12-29T04:04:46;9.90;99.90
12887;DHT22;6511;49.746;6.094;2022-12-29T04:07:12;9.90;99.90
12887;DHT22;6511;49.746;6.094;2022-12-29T04:09:37;9.90;99.90
12887;DHT22;6511;49.746;6.094;2022-12-29T04:12:03;9.80;99.90
12887;DHT22;6511;49.746;6.094;2022-12-29T04:14:29;10.00;99.90
12887;DHT22;6511;49.746;6.094;2022-12-29T04:16:54;10.00;99.90
12887;DHT22;6511;49.746;6.094;2022-12-29T04:19:20;10.10;99.90
12887;DHT22;6511;49.746;6.094;2022-12-29T04:21:45;10.10;99.90
12887;DHT22;6511;49.746;6.094;2022-12-29T04:24:11;10.10;99.90
12887;DHT22;6511;49.746;6.094;2022-12-29T04:26:38;10.20;99.90
12887;DHT22;6511;49.746;6.094;2022-12-29T04:29:03;10.20;99.90
12887;DHT22;6511;49.746;6.094;2022-12-29T04:31:29;10.20;99.90
12887;DHT22;6511;49.746;6.094;2022-12-29T04:33:55;10.20;99.90
12887;DHT22;6511;49.746;6.094;2022-12-29T04:36:22;10.20;99.90
12887;DHT22;6511;49.746;6.094;2022-12-29T04:38:48;10.20;99.90
12887;DHT22;6511;49.746;6.094;2022-12-29T04:41:13;10.20;99.90
12887;DHT22;6511;49.746;6.094;2022-12-29T04:43:39;10.20;99.90
12887;DHT22;6511;49.746;6.094;2022-12-29T04:46:05;10.20;99.90
12887;DHT22;6511;49.746;6.094;2022-12-29T04:48:30;10.20;99.90
12887;DHT22;6511;49.746;6.094;2022-12-29T04:50:56;10.20;99.90
12887;DHT22;6511;49.746;6.094;2022-12-29T04:53:21;10.20;99.90
12887;DHT22;6511;49.746;6.094;2022-12-29T04:55:51;10.20;99.90
12887;DHT22;6511;49.746;6.094;2022-12-29T04:58:18;10.20;99.90
12887;DHT22;6511;49.746;6.094;2022-12-29T05:00:43;10.20;99.90
12887;DHT22;6511;49.746;6.094;2022-12-29T05:03:09;10.10;99.90
12887;DHT22;6511;49.746;6.094;2022-12-29T05:05:34;10.00;99.90
12887;DHT22;6511;49.746;6.094;2022-12-29T05:08:00;9.90;99.90
12887;DHT22;6511;49.746;6.094;2022-12-29T05:10:25;9.80;99.90
12887;DHT22;6511;49.746;6.094;2022-12-29T05:12:51;9.70;99.90
12887;DHT22;6511;49.746;6.094;2022-12-29T05:15:16;9.60;99.90
12887;DHT22;6511;49.746;6.094;2022-12-29T05:17:42;9.60;99.90
12887;DHT22;6511;49.746;6.094;2022-12-29T05:20:08;9.60;99.90
12887;DHT22;6511;49.746;6.094;2022-12-29T05:22:34;9.50;99.90
12887;DHT22;6511;49.746;6.094;2022-12-29T05:24:59;9.60;99.90
12887;DHT22;6511;49.746;6.094;2022-12-29T05:27:25;9.50;99.90
12887;DHT22;6511;49.746;6.094;2022-12-29T05:29:50;9.50;99.90
12887;DHT22;6511;49.746;6.094;2022-12-29T05:32:16;9.50;99.90
12887;DHT22;6511;49.746;6.094;2022-12-29T05:34:41;9.50;99.90
12887;DHT22;6511;49.746;6.094;2022-12-29T05:37:07;9.40;99.90
12887;DHT22;6511;49.746;6.094;2022-12-29T05:39:32;9.40;99.90
12887;DHT22;6511;49.746;6.094;2022-12-29T05:41:58;9.40;99.90
12887;DHT22;6511;49.746;6.094;2022-12-29T05:44:23;9.40;99.90
12887;DHT22;6511;49.746;6.094;2022-12-29T05:46:49;9.40;99.90
12887;DHT22;6511;49.746;6.094;2022-12-29T05:49:15;9.40;99.90
12887;DHT22;6511;49.746;6.094;2022-12-29T05:51:41;9.50;99.90
12887;DHT22;6511;49.746;6.094;2022-12-29T05:54:06;9.50;99.90
12887;DHT22;6511;49.746;6.094;2022-12-29T05:56:32;9.50;99.90
12887;DHT22;6511;49.746;6.094;2022-12-29T05:58:58;9.50;99.90
12887;DHT22;6511;49.746;6.094;2022-12-29T06:01:23;9.50;99.90
12887;DHT22;6511;49.746;6.094;2022-12-29T06:03:49;9.50;99.90
12887;DHT22;6511;49.746;6.094;2022-12-29T06:06:15;9.50;99.90
12887;DHT22;6511;49.746;6.094;2022-12-29T06:08:41;9.50;99.90
12887;DHT22;6511;49.746;6.094;2022-12-29T06:11:06;9.50;99.90
12887;DHT22;6511;49.746;6.094;2022-12-29T06:13:32;9.50;99.90
12887;DHT22;6511;49.746;6.094;2022-12-29T06:15:57;9.60;99.90
12887;DHT22;6511;49.746;6.094;2022-12-29T06:18:23;9.60;99.90
12887;DHT22;6511;49.746;6.094;2022-12-29T06:20:49;9.60;99.90
12887;DHT22;6511;49.746;6.094;2022-12-29T06:23:14;9.60;99.90
12887;DHT22;6511;49.746;6.094;2022-12-29T06:25:40;9.60;99.90
12887;DHT22;6511;49.746;6.094;2022-12-29T06:28:05;9.60;99.90
12887;DHT22;6511;49.746;6.094;2022-12-29T06:30:32;9.60;99.90
12887;DHT22;6511;49.746;6.094;2022-12-29T06:33:00;9.60;99.90
12887;DHT22;6511;49.746;6.094;2022-12-29T06:35:26;9.60;99.90
12887;DHT22;6511;49.746;6.094;2022-12-29T06:37:51;9.60;99.90
12887;DHT22;6511;49.746;6.094;2022-12-29T06:40:17;9.60;99.90
12887;DHT22;6511;49.746;6.094;2022-12-29T06:42:43;9.70;99.90
12887;DHT22;6511;49.746;6.094;2022-12-29T06:45:09;9.70;99.90
12887;DHT22;6511;49.746;6.094;2022-12-29T06:47:35;9.70;99.90
12887;DHT22;6511;49.746;6.094;2022-12-29T06:50:01;9.70;99.90
12887;DHT22;6511;49.746;6.094;2022-12-29T06:52:26;9.70;99.90
12887;DHT22;6511;49.746;6.094;2022-12-29T06:54:54;9.60;99.90
12887;DHT22;6511;49.746;6.094;2022-12-29T06:57:19;9.50;99.90
12887;DHT22;6511;49.746;6.094;2022-12-29T06:59:45;9.20;99.90
12887;DHT22;6511;49.746;6.094;2022-12-29T07:02:11;9.10;99.90
12887;DHT22;6511;49.746;6.094;2022-12-29T07:04:37;9.10;99.90
12887;DHT22;6511;49.746;6.094;2022-12-29T07:07:02;9.10;99.90
12887;DHT22;6511;49.746;6.094;2022-12-29T07:09:28;9.10;99.90
12887;DHT22;6511;49.746;6.094;2022-12-29T07:11:53;9.10;99.90
12887;DHT22;6511;49.746;6.094;2022-12-29T07:14:19;9.20;99.90
12887;DHT22;6511;49.746;6.094;2022-12-29T07:16:44;9.20;99.90
12887;DHT22;6511;49.746;6.094;2022-12-29T07:19:10;9.20;99.90
12887;DHT22;6511;49.746;6.094;2022-12-29T07:21:36;9.20;99.90
12887;DHT22;6511;49.746;6.094;2022-12-29T07:24:01;9.20;99.90
12887;DHT22;6511;49.746;6.094;2022-12-29T07:26:27;9.30;99.90
12887;DHT22;6511;49.746;6.094;2022-12-29T07:28:52;9.30;99.90
12887;DHT22;6511;49.746;6.094;2022-12-29T07:31:20;9.30;99.90
12887;DHT22;6511;49.746;6.094;2022-12-29T07:33:46;9.30;99.90
12887;DHT22;6511;49.746;6.094;2022-12-29T07:36:13;9.40;99.90
12887;DHT22;6511;49.746;6.094;2022-12-29T07:38:39;9.40;99.90
12887;DHT22;6511;49.746;6.094;2022-12-29T07:41:05;9.40;99.90
12887;DHT22;6511;49.746;6.094;2022-12-29T07:43:30;9.40;99.90
12887;DHT22;6511;49.746;6.094;2022-12-29T07:45:56;9.40;99.90
12887;DHT22;6511;49.746;6.094;2022-12-29T07:48:22;9.40;99.90
12887;DHT22;6511;49.746;6.094;2022-12-29T07:50:47;9.40;99.90
12887;DHT22;6511;49.746;6.094;2022-12-29T07:53:13;9.40;99.90
12887;DHT22;6511;49.746;6.094;2022-12-29T07:55:39;9.40;99.90
12887;DHT22;6511;49.746;6.094;2022-12-29T07:58:04;9.40;99.90
12887;DHT22;6511;49.746;6.094;2022-12-29T08:00:30;9.50;99.90
12887;DHT22;6511;49.746;6.094;2022-12-29T08:02:55;9.50;99.90
12887;DHT22;6511;49.746;6.094;2022-12-29T08:05:21;9.50;99.90
12887;DHT22;6511;49.746;6.094;2022-12-29T08:07:47;9.40;99.90
12887;DHT22;6511;49.746;6.094;2022-12-29T08:10:13;9.40;99.90
12887;DHT22;6511;49.746;6.094;2022-12-29T08:12:39;9.40;99.90
12887;DHT22;6511;49.746;6.094;2022-12-29T08:15:06;9.40;99.90
12887;DHT22;6511;49.746;6.094;2022-12-29T08:17:32;9.50;99.90
12887;DHT22;6511;49.746;6.094;2022-12-29T08:19:58;9.50;99.90
12887;DHT22;6511;49.746;6.094;2022-12-29T08:22:24;9.50;99.90
12887;DHT22;6511;49.746;6.094;2022-12-29T08:24:49;9.50;99.90
12887;DHT22;6511;49.746;6.094;2022-12-29T08:27:15;9.50;99.90
12887;DHT22;6511;49.746;6.094;2022-12-29T08:29:41;9.60;99.90
12887;DHT22;6511;49.746;6.094;2022-12-29T08:32:06;9.60;99.90
12887;DHT22;6511;49.746;6.094;2022-12-29T08:34:32;9.60;99.90
12887;DHT22;6511;49.746;6.094;2022-12-29T08:36:58;9.50;99.90
12887;DHT22;6511;49.746;6.094;2022-12-29T08:39:24;9.50;99.90
12887;DHT22;6511;49.746;6.094;2022-12-29T08:41:49;9.50;99.90
12887;DHT22;6511;49.746;6.094;2022-12-29T08:44:15;9.60;99.90
12887;DHT22;6511;49.746;6.094;2022-12-29T08:46:40;9.50;99.90
12887;DHT22;6511;49.746;6.094;2022-12-29T08:49:06;9.50;99.90
12887;DHT22;6511;49.746;6.094;2022-12-29T08:51:31;9.50;99.90
12887;DHT22;6511;49.746;6.094;2022-12-29T08:53:58;9.60;99.90
12887;DHT22;6511;49.746;6.094;2022-12-29T08:56:23;9.50;99.90
12887;DHT22;6511;49.746;6.094;2022-12-29T08:58:50;9.50;99.90
12887;DHT22;6511;49.746;6.094;2022-12-29T09:01:16;9.50;99.90
12887;DHT22;6511;49.746;6.094;2022-12-29T09:03:41;9.50;99.90
12887;DHT22;6511;49.746;6.094;2022-12-29T09:06:07;9.50;99.90
12887;DHT22;6511;49.746;6.094;2022-12-29T09:08:32;9.50;99.90
12887;DHT22;6511;49.746;6.094;2022-12-29T09:11:15;9.60;99.90
12887;DHT22;6511;49.746;6.094;2022-12-29T09:13:40;9.60;99.90
12887;DHT22;6511;49.746;6.094;2022-12-29T09:16:06;9.60;99.90
12887;DHT22;6511;49.746;6.094;2022-12-29T09:18:32;9.60;99.90
12887;DHT22;6511;49.746;6.094;2022-12-29T09:20:59;9.60;99.90
12887;DHT22;6511;49.746;6.094;2022-12-29T09:23:25;9.60;99.90
12887;DHT22;6511;49.746;6.094;2022-12-29T09:25:51;9.60;99.90
12887;DHT22;6511;49.746;6.094;2022-12-29T09:28:17;9.50;99.90
12887;DHT22;6511;49.746;6.094;2022-12-29T09:30:43;9.60;99.90
12887;DHT22;6511;49.746;6.094;2022-12-29T09:33:08;9.60;99.90
12887;DHT22;6511;49.746;6.094;2022-12-29T09:35:34;9.60;99.90
12887;DHT22;6511;49.746;6.094;2022-12-29T09:37:59;9.60;99.90
12887;DHT22;6511;49.746;6.094;2022-12-29T09:40:28;9.60;99.90
12887;DHT22;6511;49.746;6.094;2022-12-29T09:43:04;9.70;99.90
12887;DHT22;6511;49.746;6.094;2022-12-29T09:45:55;9.70;99.90
12887;DHT22;6511;49.746;6.094;2022-12-29T09:48:27;9.80;99.90
12887;DHT22;6511;49.746;6.094;2022-12-29T09:50:58;9.80;99.90
12887;DHT22;6511;49.746;6.094;2022-12-29T09:53:36;9.80;99.90
12887;DHT22;6511;49.746;6.094;2022-12-29T09:56:05;9.80;99.90
12887;DHT22;6511;49.746;6.094;2022-12-29T09:58:43;9.80;99.90
12887;DHT22;6511;49.746;6.094;2022-12-29T10:01:32;9.80;99.90
12887;DHT22;6511;49.746;6.094;2022-12-29T10:04:00;9.80;99.90
12887;DHT22;6511;49.746;6.094;2022-12-29T10:23:40;9.80;99.90
12887;DHT22;6511;49.746;6.094;2022-12-29T10:26:15;9.70;99.90
12887;DHT22;6511;49.746;6.094;2022-12-29T10:31:23;9.70;99.90
12887;DHT22;6511;49.746;6.094;2022-12-29T10:33:53;9.70;99.90
12887;DHT22;6511;49.746;6.094;2022-12-29T10:36:42;9.70;99.90
12887;DHT22;6511;49.746;6.094;2022-12-29T10:39:33;9.70;99.90
12887;DHT22;6511;49.746;6.094;2022-12-29T10:42:28;9.70;99.90
12887;DHT22;6511;49.746;6.094;2022-12-29T10:44:58;9.80;99.90
12887;DHT22;6511;49.746;6.094;2022-12-29T10:47:28;9.70;99.90
12887;DHT22;6511;49.746;6.094;2022-12-29T10:49:55;9.70;99.90
12887;DHT22;6511;49.746;6.094;2022-12-29T10:52:25;9.80;99.90
12887;DHT22;6511;49.746;6.094;2022-12-29T10:59:57;9.80;99.90
12887;DHT22;6511;49.746;6.094;2022-12-29T11:02:43;9.80;99.90
12887;DHT22;6511;49.746;6.094;2022-12-29T11:07:56;9.90;99.90
12887;DHT22;6511;49.746;6.094;2022-12-29T11:10:30;9.90;99.90
12887;DHT22;6511;49.746;6.094;2022-12-29T11:13:12;9.90;99.90
12887;DHT22;6511;49.746;6.094;2022-12-29T11:15:41;9.90;99.90
12887;DHT22;6511;49.746;6.094;2022-12-29T11:20:43;9.90;99.90
12887;DHT22;6511;49.746;6.094;2022-12-29T11:26:21;10.10;99.90
12887;DHT22;6511;49.746;6.094;2022-12-29T11:31:41;10.20;99.90
12887;DHT22;6511;49.746;6.094;2022-12-29T11:34:07;10.20;99.90
12887;DHT22;6511;49.746;6.094;2022-12-29T11:36:34;10.30;99.90
12887;DHT22;6511;49.746;6.094;2022-12-29T11:39:00;10.30;99.90
12887;DHT22;6511;49.746;6.094;2022-12-29T11:41:28;10.30;99.90
12887;DHT22;6511;49.746;6.094;2022-12-29T11:43:57;10.30;99.90
12887;DHT22;6511;49.746;6.094;2022-12-29T11:46:32;10.30;99.90
12887;DHT22;6511;49.746;6.094;2022-12-29T11:48:59;10.20;99.90
12887;DHT22;6511;49.746;6.094;2022-12-29T11:51:43;10.30;99.90
12887;DHT22;6511;49.746;6.094;2022-12-29T11:54:33;10.30;99.90
12887;DHT22;6511;49.746;6.094;2022-12-29T11:56:59;10.30;99.90
12887;DHT22;6511;49.746;6.094;2022-12-29T11:59:40;10.30;99.90
12887;DHT22;6511;49.746;6.094;2022-12-29T12:02:36;10.30;99.90
12887;DHT22;6511;49.746;6.094;2022-12-29T12:05:27;10.40;99.90
12887;DHT22;6511;49.746;6.094;2022-12-29T12:11:32;10.50;99.90
12887;DHT22;6511;49.746;6.094;2022-12-29T12:13:37;10.50;99.90
12887;DHT22;6511;49.746;6.094;2022-12-29T12:16:09;10.60;99.90
12887;DHT22;6511;49.746;6.094;2022-12-29T12:18:57;10.70;99.90
12887;DHT22;6511;49.746;6.094;2022-12-29T12:24:59;10.60;99.90
12887;DHT22;6511;49.746;6.094;2022-12-29T12:27:42;10.40;99.90
12887;DHT22;6511;49.746;6.094;2022-12-29T12:33:09;10.50;99.90
12887;DHT22;6511;49.746;6.094;2022-12-29T12:35:49;10.50;99.90
12887;DHT22;6511;49.746;6.094;2022-12-29T12:38:55;10.50;99.90
12887;DHT22;6511;49.746;6.094;2022-12-29T12:44:25;10.60;99.90
12887;DHT22;6511;49.746;6.094;2022-12-29T12:47:11;10.80;99.90
12887;DHT22;6511;49.746;6.094;2022-12-29T12:52:44;10.70;99.90
12887;DHT22;6511;49.746;6.094;2022-12-29T12:55:43;10.50;99.90
12887;DHT22;6511;49.746;6.094;2022-12-29T13:01:06;10.30;99.90
12887;DHT22;6511;49.746;6.094;2022-12-29T13:03:49;10.40;99.90
12887;DHT22;6511;49.746;6.094;2022-12-29T13:06:50;10.30;99.90
12887;DHT22;6511;49.746;6.094;2022-12-29T13:09:37;10.20;99.90
12887;DHT22;6511;49.746;6.094;2022-12-29T13:12:28;10.20;99.90
12887;DHT22;6511;49.746;6.094;2022-12-29T13:15:18;10.20;99.90
12887;DHT22;6511;49.746;6.094;2022-12-29T13:18:06;10.20;99.90
12887;DHT22;6511;49.746;6.094;2022-12-29T13:23:56;10.20;99.90
12887;DHT22;6511;49.746;6.094;2022-12-29T13:26:38;10.30;99.90
12887;DHT22;6511;49.746;6.094;2022-12-29T13:29:29;10.30;99.90
12887;DHT22;6511;49.746;6.094;2022-12-29T13:34:48;10.40;99.90
12887;DHT22;6511;49.746;6.094;2022-12-29T13:37:20;10.40;99.90
12887;DHT22;6511;49.746;6.094;2022-12-29T13:40:01;10.30;99.90
12887;DHT22;6511;49.746;6.094;2022-12-29T13:42:28;10.30;99.90
12887;DHT22;6511;49.746;6.094;2022-12-29T13:45:03;10.20;99.90
12887;DHT22;6511;49.746;6.094;2022-12-29T13:47:41;10.20;99.90
12887;DHT22;6511;49.746;6.094;2022-12-29T13:50:23;10.10;99.90
12887;DHT22;6511;49.746;6.094;2022-12-29T13:56:13;10.00;99.90
12887;DHT22;6511;49.746;6.094;2022-12-29T14:01:30;9.90;99.90
12887;DHT22;6511;49.746;6.094;2022-12-29T14:03:59;9.80;99.90
12887;DHT22;6511;49.746;6.094;2022-12-29T14:06:29;9.80;99.90
12887;DHT22;6511;49.746;6.094;2022-12-29T14:09:00;9.80;99.90
12887;DHT22;6511;49.746;6.094;2022-12-29T14:11:35;9.90;99.90
12887;DHT22;6511;49.746;6.094;2022-12-29T14:14:28;10.10;99.90
12887;DHT22;6511;49.746;6.094;2022-12-29T14:16:54;10.00;99.90
12887;DHT22;6511;49.746;6.094;2022-12-29T14:19:28;10.00;99.90
12887;DHT22;6511;49.746;6.094;2022-12-29T14:21:58;10.00;99.90
12887;DHT22;6511;49.746;6.094;2022-12-29T14:34:47;9.60;99.90
12887;DHT22;6511;49.746;6.094;2022-12-29T14:37:33;9.60;99.90
12887;DHT22;6511;49.746;6.094;2022-12-29T14:42:48;9.50;99.90
12887;DHT22;6511;49.746;6.094;2022-12-29T14:47:44;9.60;99.90
12887;DHT22;6511;49.746;6.094;2022-12-29T14:52:48;9.50;99.90
12887;DHT22;6511;49.746;6.094;2022-12-29T14:57:49;9.40;99.90
12887;DHT22;6511;49.746;6.094;2022-12-29T15:00:23;9.30;99.90
12887;DHT22;6511;49.746;6.094;2022-12-29T15:03:24;9.30;99.90
12887;DHT22;6511;49.746;6.094;2022-12-29T15:06:13;9.20;99.90
12887;DHT22;6511;49.746;6.094;2022-12-29T15:09:01;9.10;99.90
12887;DHT22;6511;49.746;6.094;2022-12-29T15:14:03;9.00;99.90
12887;DHT22;6511;49.746;6.094;2022-12-29T15:16:48;9.00;99.90
12887;DHT22;6511;49.746;6.094;2022-12-29T15:19:25;8.90;99.90
12887;DHT22;6511;49.746;6.094;2022-12-29T15:21:52;8.90;99.90
12887;DHT22;6511;49.746;6.094;2022-12-29T15:24:19;8.80;99.90
12887;DHT22;6511;49.746;6.094;2022-12-29T15:26:50;8.80;99.90
12887;DHT22;6511;49.746;6.094;2022-12-29T15:29:39;8.80;99.90
12887;DHT22;6511;49.746;6.094;2022-12-29T15:34:40;8.80;99.90
12887;DHT22;6511;49.746;6.094;2022-12-29T15:37:06;8.80;99.90
12887;DHT22;6511;49.746;6.094;2022-12-29T15:39:33;8.80;99.90
12887;DHT22;6511;49.746;6.094;2022-12-29T15:42:23;8.80;99.90
12887;DHT22;6511;49.746;6.094;2022-12-29T15:44:52;8.80;99.90
12887;DHT22;6511;49.746;6.094;2022-12-29T15:47:18;8.80;99.90
12887;DHT22;6511;49.746;6.094;2022-12-29T15:49:48;8.70;99.90
12887;DHT22;6511;49.746;6.094;2022-12-29T15:52:22;8.70;99.90
12887;DHT22;6511;49.746;6.094;2022-12-29T15:54:50;8.70;99.90
12887;DHT22;6511;49.746;6.094;2022-12-29T15:57:28;8.60;99.90
12887;DHT22;6511;49.746;6.094;2022-12-29T15:59:55;8.50;99.90
12887;DHT22;6511;49.746;6.094;2022-12-29T16:02:24;8.50;99.90
12887;DHT22;6511;49.746;6.094;2022-12-29T16:04:50;8.40;99.90
12887;DHT22;6511;49.746;6.094;2022-12-29T16:07:28;8.40;99.90
12887;DHT22;6511;49.746;6.094;2022-12-29T16:09:56;8.30;99.90
12887;DHT22;6511;49.746;6.094;2022-12-29T16:12:25;8.30;99.90
12887;DHT22;6511;49.746;6.094;2022-12-29T16:14:57;8.20;99.90
12887;DHT22;6511;49.746;6.094;2022-12-29T16:17:31;8.20;99.90
12887;DHT22;6511;49.746;6.094;2022-12-29T16:20:23;8.30;99.90
12887;DHT22;6511;49.746;6.094;2022-12-29T16:22:53;8.20;99.90
12887;DHT22;6511;49.746;6.094;2022-12-29T16:25:32;8.10;99.90
12887;DHT22;6511;49.746;6.094;2022-12-29T16:28:01;8.10;99.90
12887;DHT22;6511;49.746;6.094;2022-12-29T16:30:32;8.20;99.90
12887;DHT22;6511;49.746;6.094;2022-12-29T16:33:00;8.10;99.90
12887;DHT22;6511;49.746;6.094;2022-12-29T16:35:49;8.20;99.90
12887;DHT22;6511;49.746;6.094;2022-12-29T16:38:23;8.10;99.90
12887;DHT22;6511;49.746;6.094;2022-12-29T16:40:59;8.10;99.90
12887;DHT22;6511;49.746;6.094;2022-12-29T16:43:35;8.10;99.90
12887;DHT22;6511;49.746;6.094;2022-12-29T16:46:25;8.20;99.90
12887;DHT22;6511;49.746;6.094;2022-12-29T16:48:56;8.20;99.90
12887;DHT22;6511;49.746;6.094;2022-12-29T16:51:36;8.00;99.90
12887;DHT22;6511;49.746;6.094;2022-12-29T16:54:02;8.00;99.90
12887;DHT22;6511;49.746;6.094;2022-12-29T16:56:31;7.90;99.90
12887;DHT22;6511;49.746;6.094;2022-12-29T16:59:19;7.90;99.90
12887;DHT22;6511;49.746;6.094;2022-12-29T17:01:48;7.80;99.90
12887;DHT22;6511;49.746;6.094;2022-12-29T17:04:14;7.80;99.90
12887;DHT22;6511;49.746;6.094;2022-12-29T17:06:40;7.80;99.90
12887;DHT22;6511;49.746;6.094;2022-12-29T17:09:23;7.70;99.90
12887;DHT22;6511;49.746;6.094;2022-12-29T17:11:54;7.70;99.90
12887;DHT22;6511;49.746;6.094;2022-12-29T17:16:59;7.60;99.90
12887;DHT22;6511;49.746;6.094;2022-12-29T17:19:33;7.60;99.90
12887;DHT22;6511;49.746;6.094;2022-12-29T17:22:01;7.50;99.90
12887;DHT22;6511;49.746;6.094;2022-12-29T17:24:26;7.50;99.90
12887;DHT22;6511;49.746;6.094;2022-12-29T17:26:55;7.50;99.90
12887;DHT22;6511;49.746;6.094;2022-12-29T17:29:33;7.60;99.90
12887;DHT22;6511;49.746;6.094;2022-12-29T17:32:00;7.60;99.90
12887;DHT22;6511;49.746;6.094;2022-12-29T17:34:26;7.60;99.90
12887;DHT22;6511;49.746;6.094;2022-12-29T17:36:52;7.60;99.90
12887;DHT22;6511;49.746;6.094;2022-12-29T17:39:18;7.60;99.90
12887;DHT22;6511;49.746;6.094;2022-12-29T17:41:44;7.70;99.90
12887;DHT22;6511;49.746;6.094;2022-12-29T17:44:15;7.70;99.90
12887;DHT22;6511;49.746;6.094;2022-12-29T17:46:42;7.80;99.90
12887;DHT22;6511;49.746;6.094;2022-12-29T17:49:15;7.70;99.90
12887;DHT22;6511;49.746;6.094;2022-12-29T17:51:42;7.60;99.90
12887;DHT22;6511;49.746;6.094;2022-12-29T17:54:21;7.50;99.90
12887;DHT22;6511;49.746;6.094;2022-12-29T17:56:47;7.40;99.90
12887;DHT22;6511;49.746;6.094;2022-12-29T17:59:13;7.30;99.90
12887;DHT22;6511;49.746;6.094;2022-12-29T18:01:40;7.30;99.90
12887;DHT22;6511;49.746;6.094;2022-12-29T18:04:06;7.30;99.90
12887;DHT22;6511;49.746;6.094;2022-12-29T18:06:31;7.30;99.90
12887;DHT22;6511;49.746;6.094;2022-12-29T18:08:57;7.30;99.90
12887;DHT22;6511;49.746;6.094;2022-12-29T18:11:24;7.30;99.90
12887;DHT22;6511;49.746;6.094;2022-12-29T18:13:52;7.20;99.90
12887;DHT22;6511;49.746;6.094;2022-12-29T18:16:18;7.20;99.90
12887;DHT22;6511;49.746;6.094;2022-12-29T18:18:45;7.20;99.90
12887;DHT22;6511;49.746;6.094;2022-12-29T18:21:18;7.00;99.90
12887;DHT22;6511;49.746;6.094;2022-12-29T18:23:45;7.00;99.90
12887;DHT22;6511;49.746;6.094;2022-12-29T18:26:22;6.90;99.90